sensor_id;sensor_type;location;lat;lon;timestamp;P1;durP1;ratioP1;P2;durP2;ratioP2
9413;SDS011;4746;35.664;139.738;2022-07-29T00:02:29;3.47;;;1.58;;
9413;SDS011;4746;35.664;139.738;2022-07-29T00:04:58;2.85;;;1.27;;
9413;SDS011;4746;35.664;139.738;2022-07-29T00:07:26;2.00;;;1.20;;
9413;SDS011;4746;35.664;139.738;2022-07-29T00:09:53;4.15;;;1.48;;
9413;SDS011;4746;35.664;139.738;2022-07-29T00:12:22;4.57;;;1.23;;
9413;SDS011;4746;35.664;139.738;2022-07-29T00:14:51;2.83;;;1.55;;
9413;SDS011;4746;35.664;139.738;2022-07-29T00:17:21;3.03;;;1.40;;
9413;SDS011;4746;35.664;139.738;2022-07-29T00:19:49;3.03;;;1.50;;
9413;SDS011;4746;35.664;139.738;2022-07-29T00:22:19;3.90;;;1.23;;
9413;SDS011;4746;35.664;139.738;2022-07-29T00:24:48;3.13;;;1.25;;
9413;SDS011;4746;35.664;139.738;2022-07-29T00:27:16;3.63;;;1.40;;
9413;SDS011;4746;35.664;139.738;2022-07-29T00:29:44;4.43;;;1.40;;
9413;SDS011;4746;35.664;139.738;2022-07-29T00:32:12;2.55;;;1.30;;
9413;SDS011;4746;35.664;139.738;2022-07-29T00:34:39;3.80;;;1.20;;
9413;SDS011;4746;35.664;139.738;2022-07-29T00:37:25;3.10;;;1.20;;
9413;SDS011;4746;35.664;139.738;2022-07-29T00:39:53;5.38;;;1.88;;
9413;SDS011;4746;35.664;139.738;2022-07-29T00:42:20;3.78;;;1.30;;
9413;SDS011;4746;35.664;139.738;2022-07-29T00:44:48;3.42;;;1.48;;
9413;SDS011;4746;35.664;139.738;2022-07-29T00:47:16;3.20;;;1.40;;
9413;SDS011;4746;35.664;139.738;2022-07-29T00:49:43;3.90;;;1.35;;
9413;SDS011;4746;35.664;139.738;2022-07-29T00:52:11;3.47;;;1.38;;
9413;SDS011;4746;35.664;139.738;2022-07-29T00:54:39;4.10;;;1.30;;
9413;SDS011;4746;35.664;139.738;2022-07-29T00:57:07;5.10;;;1.50;;
9413;SDS011;4746;35.664;139.738;2022-07-29T00:59:35;3.55;;;1.42;;
9413;SDS011;4746;35.664;139.738;2022-07-29T01:02:02;4.00;;;1.33;;
9413;SDS011;4746;35.664;139.738;2022-07-29T01:04:30;2.50;;;1.20;;
9413;SDS011;4746;35.664;139.738;2022-07-29T01:07:02;2.70;;;1.40;;
9413;SDS011;4746;35.664;139.738;2022-07-29T01:09:31;3.42;;;1.48;;
9413;SDS011;4746;35.664;139.738;2022-07-29T01:12:01;4.20;;;1.67;;
9413;SDS011;4746;35.664;139.738;2022-07-29T01:14:30;4.40;;;1.40;;
9413;SDS011;4746;35.664;139.738;2022-07-29T01:17:03;3.95;;;1.23;;
9413;SDS011;4746;35.664;139.738;2022-07-29T01:20:26;1.80;;;1.00;;
9413;SDS011;4746;35.664;139.738;2022-07-29T01:26:47;2.30;;;1.00;;
9413;SDS011;4746;35.664;139.738;2022-07-29T01:29:38;5.65;;;1.63;;
9413;SDS011;4746;35.664;139.738;2022-07-29T01:32:21;3.67;;;1.38;;
9413;SDS011;4746;35.664;139.738;2022-07-29T01:40:52;2.10;;;0.90;;
9413;SDS011;4746;35.664;139.738;2022-07-29T01:43:46;2.42;;;1.05;;
9413;SDS011;4746;35.664;139.738;2022-07-29T01:46:33;2.95;;;1.10;;
9413;SDS011;4746;35.664;139.738;2022-07-29T01:49:13;4.95;;;1.00;;
9413;SDS011;4746;35.664;139.738;2022-07-29T01:51:48;4.50;;;1.10;;
9413;SDS011;4746;35.664;139.738;2022-07-29T01:54:29;3.00;;;0.90;;
9413;SDS011;4746;35.664;139.738;2022-07-29T01:57:09;1.85;;;0.90;;
9413;SDS011;4746;35.664;139.738;2022-07-29T01:59:43;3.28;;;1.15;;
9413;SDS011;4746;35.664;139.738;2022-07-29T02:02:14;3.10;;;1.13;;
9413;SDS011;4746;35.664;139.738;2022-07-29T02:04:44;3.92;;;1.13;;
9413;SDS011;4746;35.664;139.738;2022-07-29T02:07:19;2.65;;;1.00;;
9413;SDS011;4746;35.664;139.738;2022-07-29T02:09:49;5.30;;;1.33;;
9413;SDS011;4746;35.664;139.738;2022-07-29T02:12:19;3.70;;;1.00;;
9413;SDS011;4746;35.664;139.738;2022-07-29T02:14:50;2.92;;;1.13;;
9413;SDS011;4746;35.664;139.738;2022-07-29T02:17:21;2.83;;;1.27;;
9413;SDS011;4746;35.664;139.738;2022-07-29T02:19:56;2.72;;;1.30;;
9413;SDS011;4746;35.664;139.738;2022-07-29T02:22:30;1.35;;;0.98;;
9413;SDS011;4746;35.664;139.738;2022-07-29T02:25:02;3.95;;;2.00;;
9413;SDS011;4746;35.664;139.738;2022-07-29T02:27:33;3.50;;;2.03;;
9413;SDS011;4746;35.664;139.738;2022-07-29T02:30:06;2.60;;;1.20;;
9413;SDS011;4746;35.664;139.738;2022-07-29T02:32:36;7.25;;;2.05;;
9413;SDS011;4746;35.664;139.738;2022-07-29T02:35:08;3.90;;;1.70;;
9413;SDS011;4746;35.664;139.738;2022-07-29T02:37:38;6.82;;;2.50;;
9413;SDS011;4746;35.664;139.738;2022-07-29T02:40:12;3.83;;;2.28;;
9413;SDS011;4746;35.664;139.738;2022-07-29T02:42:42;4.75;;;1.85;;
9413;SDS011;4746;35.664;139.738;2022-07-29T02:45:12;4.13;;;1.20;;
9413;SDS011;4746;35.664;139.738;2022-07-29T02:47:41;3.03;;;1.20;;
9413;SDS011;4746;35.664;139.738;2022-07-29T02:50:16;5.57;;;1.80;;
9413;SDS011;4746;35.664;139.738;2022-07-29T02:53:17;6.57;;;1.90;;
9413;SDS011;4746;35.664;139.738;2022-07-29T02:58:27;3.05;;;1.08;;
9413;SDS011;4746;35.664;139.738;2022-07-29T03:01:08;4.68;;;1.52;;
9413;SDS011;4746;35.664;139.738;2022-07-29T03:03:47;3.30;;;1.52;;
9413;SDS011;4746;35.664;139.738;2022-07-29T03:06:19;4.93;;;1.67;;
9413;SDS011;4746;35.664;139.738;2022-07-29T03:08:51;4.57;;;1.48;;
9413;SDS011;4746;35.664;139.738;2022-07-29T03:11:20;4.30;;;1.27;;
9413;SDS011;4746;35.664;139.738;2022-07-29T03:13:48;4.45;;;1.20;;
9413;SDS011;4746;35.664;139.738;2022-07-29T03:16:18;4.03;;;1.60;;
9413;SDS011;4746;35.664;139.738;2022-07-29T03:18:49;4.80;;;1.50;;
9413;SDS011;4746;35.664;139.738;2022-07-29T03:21:18;1.42;;;1.00;;
9413;SDS011;4746;35.664;139.738;2022-07-29T03:23:45;4.38;;;1.30;;
9413;SDS011;4746;35.664;139.738;2022-07-29T03:26:13;6.65;;;1.85;;
9413;SDS011;4746;35.664;139.738;2022-07-29T03:28:40;5.13;;;1.52;;
9413;SDS011;4746;35.664;139.738;2022-07-29T03:31:08;3.42;;;1.13;;
9413;SDS011;4746;35.664;139.738;2022-07-29T03:33:36;1.48;;;1.10;;
9413;SDS011;4746;35.664;139.738;2022-07-29T03:36:03;4.20;;;1.05;;
9413;SDS011;4746;35.664;139.738;2022-07-29T03:38:31;2.80;;;1.20;;
9413;SDS011;4746;35.664;139.738;2022-07-29T03:41:07;1.98;;;1.23;;
9413;SDS011;4746;35.664;139.738;2022-07-29T03:43:39;2.65;;;0.80;;
9413;SDS011;4746;35.664;139.738;2022-07-29T03:46:09;2.15;;;1.10;;
9413;SDS011;4746;35.664;139.738;2022-07-29T03:48:40;3.15;;;1.20;;
9413;SDS011;4746;35.664;139.738;2022-07-29T03:51:17;2.33;;;1.05;;
9413;SDS011;4746;35.664;139.738;2022-07-29T03:53:45;3.50;;;1.00;;
9413;SDS011;4746;35.664;139.738;2022-07-29T03:56:14;2.65;;;0.95;;
9413;SDS011;4746;35.664;139.738;2022-07-29T03:58:47;3.13;;;1.05;;
9413;SDS011;4746;35.664;139.738;2022-07-29T04:01:18;2.60;;;1.10;;
9413;SDS011;4746;35.664;139.738;2022-07-29T04:03:48;1.65;;;1.00;;
9413;SDS011;4746;35.664;139.738;2022-07-29T04:06:16;1.65;;;0.88;;
9413;SDS011;4746;35.664;139.738;2022-07-29T04:08:44;3.75;;;1.25;;
9413;SDS011;4746;35.664;139.738;2022-07-29T04:11:11;3.08;;;1.27;;
9413;SDS011;4746;35.664;139.738;2022-07-29T04:13:39;4.68;;;1.33;;
9413;SDS011;4746;35.664;139.738;2022-07-29T04:16:07;3.53;;;1.42;;
9413;SDS011;4746;35.664;139.738;2022-07-29T04:18:35;3.50;;;1.55;;
9413;SDS011;4746;35.664;139.738;2022-07-29T04:21:02;4.28;;;1.17;;
9413;SDS011;4746;35.664;139.738;2022-07-29T04:23:30;4.82;;;1.70;;
9413;SDS011;4746;35.664;139.738;2022-07-29T04:25:58;3.97;;;1.45;;
9413;SDS011;4746;35.664;139.738;2022-07-29T04:28:26;2.67;;;1.30;;
9413;SDS011;4746;35.664;139.738;2022-07-29T04:30:54;5.20;;;2.60;;
9413;SDS011;4746;35.664;139.738;2022-07-29T04:33:21;6.45;;;2.70;;
9413;SDS011;4746;35.664;139.738;2022-07-29T04:35:49;7.00;;;2.15;;
9413;SDS011;4746;35.664;139.738;2022-07-29T04:38:16;5.32;;;2.75;;
9413;SDS011;4746;35.664;139.738;2022-07-29T04:40:44;7.80;;;3.38;;
9413;SDS011;4746;35.664;139.738;2022-07-29T04:43:11;4.50;;;1.98;;
9413;SDS011;4746;35.664;139.738;2022-07-29T04:45:40;6.63;;;2.60;;
9413;SDS011;4746;35.664;139.738;2022-07-29T04:48:08;6.93;;;3.05;;
9413;SDS011;4746;35.664;139.738;2022-07-29T04:50:39;7.97;;;2.78;;
9413;SDS011;4746;35.664;139.738;2022-07-29T04:53:07;8.50;;;2.60;;
9413;SDS011;4746;35.664;139.738;2022-07-29T04:55:35;12.88;;;3.47;;
9413;SDS011;4746;35.664;139.738;2022-07-29T04:58:03;9.50;;;3.33;;
9413;SDS011;4746;35.664;139.738;2022-07-29T05:00:30;4.82;;;2.92;;
9413;SDS011;4746;35.664;139.738;2022-07-29T05:02:58;8.00;;;2.75;;
9413;SDS011;4746;35.664;139.738;2022-07-29T05:05:25;10.35;;;2.85;;
9413;SDS011;4746;35.664;139.738;2022-07-29T05:07:53;9.45;;;3.10;;
9413;SDS011;4746;35.664;139.738;2022-07-29T05:10:21;6.75;;;3.00;;
9413;SDS011;4746;35.664;139.738;2022-07-29T05:12:49;7.72;;;2.80;;
9413;SDS011;4746;35.664;139.738;2022-07-29T05:15:16;9.15;;;3.63;;
9413;SDS011;4746;35.664;139.738;2022-07-29T05:17:45;7.63;;;3.08;;
9413;SDS011;4746;35.664;139.738;2022-07-29T05:20:12;6.95;;;2.67;;
9413;SDS011;4746;35.664;139.738;2022-07-29T05:22:40;5.95;;;2.85;;
9413;SDS011;4746;35.664;139.738;2022-07-29T05:25:08;8.73;;;2.63;;
9413;SDS011;4746;35.664;139.738;2022-07-29T05:27:36;6.35;;;2.67;;
9413;SDS011;4746;35.664;139.738;2022-07-29T05:30:03;6.45;;;1.98;;
9413;SDS011;4746;35.664;139.738;2022-07-29T05:32:32;6.53;;;2.35;;
9413;SDS011;4746;35.664;139.738;2022-07-29T05:34:59;7.20;;;2.72;;
9413;SDS011;4746;35.664;139.738;2022-07-29T05:37:27;5.57;;;2.38;;
9413;SDS011;4746;35.664;139.738;2022-07-29T05:39:54;5.97;;;2.60;;
9413;SDS011;4746;35.664;139.738;2022-07-29T05:42:22;10.13;;;2.58;;
9413;SDS011;4746;35.664;139.738;2022-07-29T05:44:50;4.10;;;1.73;;
9413;SDS011;4746;35.664;139.738;2022-07-29T05:47:18;7.93;;;2.63;;
9413;SDS011;4746;35.664;139.738;2022-07-29T05:49:46;5.97;;;2.80;;
9413;SDS011;4746;35.664;139.738;2022-07-29T05:52:14;8.32;;;3.00;;
9413;SDS011;4746;35.664;139.738;2022-07-29T05:54:42;6.28;;;2.92;;
9413;SDS011;4746;35.664;139.738;2022-07-29T05:57:20;8.65;;;2.97;;
9413;SDS011;4746;35.664;139.738;2022-07-29T05:59:50;6.13;;;2.88;;
9413;SDS011;4746;35.664;139.738;2022-07-29T06:02:18;5.43;;;2.35;;
9413;SDS011;4746;35.664;139.738;2022-07-29T06:04:45;5.57;;;2.78;;
9413;SDS011;4746;35.664;139.738;2022-07-29T06:07:14;6.35;;;2.40;;
9413;SDS011;4746;35.664;139.738;2022-07-29T06:09:42;7.40;;;2.83;;
9413;SDS011;4746;35.664;139.738;2022-07-29T06:12:09;5.93;;;2.42;;
9413;SDS011;4746;35.664;139.738;2022-07-29T06:14:37;7.50;;;2.80;;
9413;SDS011;4746;35.664;139.738;2022-07-29T06:17:05;4.63;;;2.30;;
9413;SDS011;4746;35.664;139.738;2022-07-29T06:19:36;6.38;;;2.20;;
9413;SDS011;4746;35.664;139.738;2022-07-29T06:22:04;6.57;;;2.03;;
9413;SDS011;4746;35.664;139.738;2022-07-29T06:24:32;6.30;;;2.60;;
9413;SDS011;4746;35.664;139.738;2022-07-29T06:26:59;4.60;;;1.75;;
9413;SDS011;4746;35.664;139.738;2022-07-29T06:29:27;7.95;;;2.78;;
9413;SDS011;4746;35.664;139.738;2022-07-29T06:31:54;6.97;;;2.03;;
9413;SDS011;4746;35.664;139.738;2022-07-29T06:34:22;4.82;;;1.92;;
9413;SDS011;4746;35.664;139.738;2022-07-29T06:36:49;5.95;;;1.95;;
9413;SDS011;4746;35.664;139.738;2022-07-29T06:39:18;7.30;;;2.10;;
9413;SDS011;4746;35.664;139.738;2022-07-29T06:41:49;7.25;;;1.83;;
9413;SDS011;4746;35.664;139.738;2022-07-29T06:44:17;7.25;;;2.33;;
9413;SDS011;4746;35.664;139.738;2022-07-29T06:46:45;6.18;;;2.40;;
9413;SDS011;4746;35.664;139.738;2022-07-29T06:49:15;5.57;;;1.95;;
9413;SDS011;4746;35.664;139.738;2022-07-29T06:51:43;3.78;;;1.88;;
9413;SDS011;4746;35.664;139.738;2022-07-29T06:54:10;4.35;;;2.35;;
9413;SDS011;4746;35.664;139.738;2022-07-29T06:56:38;4.82;;;1.92;;
9413;SDS011;4746;35.664;139.738;2022-07-29T06:59:07;4.68;;;2.17;;
9413;SDS011;4746;35.664;139.738;2022-07-29T07:01:37;4.53;;;2.20;;
9413;SDS011;4746;35.664;139.738;2022-07-29T07:04:08;7.05;;;2.40;;
9413;SDS011;4746;35.664;139.738;2022-07-29T07:06:37;6.38;;;1.77;;
9413;SDS011;4746;35.664;139.738;2022-07-29T07:09:07;4.68;;;1.95;;
9413;SDS011;4746;35.664;139.738;2022-07-29T07:11:35;5.18;;;2.28;;
9413;SDS011;4746;35.664;139.738;2022-07-29T07:14:02;4.53;;;2.25;;
9413;SDS011;4746;35.664;139.738;2022-07-29T07:16:30;10.07;;;2.80;;
9413;SDS011;4746;35.664;139.738;2022-07-29T07:18:59;6.03;;;2.28;;
9413;SDS011;4746;35.664;139.738;2022-07-29T07:21:27;6.85;;;2.70;;
9413;SDS011;4746;35.664;139.738;2022-07-29T07:23:55;5.35;;;2.13;;
9413;SDS011;4746;35.664;139.738;2022-07-29T07:26:22;6.57;;;2.22;;
9413;SDS011;4746;35.664;139.738;2022-07-29T07:28:50;3.88;;;1.60;;
9413;SDS011;4746;35.664;139.738;2022-07-29T07:31:18;7.72;;;2.70;;
9413;SDS011;4746;35.664;139.738;2022-07-29T07:33:45;5.03;;;2.10;;
9413;SDS011;4746;35.664;139.738;2022-07-29T07:36:13;8.00;;;3.08;;
9413;SDS011;4746;35.664;139.738;2022-07-29T07:38:40;5.85;;;3.13;;
9413;SDS011;4746;35.664;139.738;2022-07-29T07:41:08;6.55;;;3.63;;
9413;SDS011;4746;35.664;139.738;2022-07-29T07:43:36;9.23;;;3.80;;
9413;SDS011;4746;35.664;139.738;2022-07-29T07:46:03;4.53;;;2.88;;
9413;SDS011;4746;35.664;139.738;2022-07-29T07:48:31;5.53;;;3.22;;
9413;SDS011;4746;35.664;139.738;2022-07-29T07:51:00;8.10;;;3.35;;
9413;SDS011;4746;35.664;139.738;2022-07-29T07:53:27;7.88;;;2.65;;
9413;SDS011;4746;35.664;139.738;2022-07-29T07:55:56;6.05;;;2.88;;
9413;SDS011;4746;35.664;139.738;2022-07-29T07:58:23;7.78;;;3.30;;
9413;SDS011;4746;35.664;139.738;2022-07-29T08:00:52;7.65;;;3.35;;
9413;SDS011;4746;35.664;139.738;2022-07-29T08:03:19;9.70;;;3.15;;
9413;SDS011;4746;35.664;139.738;2022-07-29T08:05:47;7.63;;;3.00;;
9413;SDS011;4746;35.664;139.738;2022-07-29T08:08:16;8.85;;;3.45;;
9413;SDS011;4746;35.664;139.738;2022-07-29T08:10:44;7.55;;;3.42;;
9413;SDS011;4746;35.664;139.738;2022-07-29T08:13:22;7.28;;;3.50;;
9413;SDS011;4746;35.664;139.738;2022-07-29T08:15:53;7.65;;;2.92;;
9413;SDS011;4746;35.664;139.738;2022-07-29T08:18:26;8.18;;;3.35;;
9413;SDS011;4746;35.664;139.738;2022-07-29T08:20:55;8.82;;;3.35;;
9413;SDS011;4746;35.664;139.738;2022-07-29T08:23:24;7.43;;;2.90;;
9413;SDS011;4746;35.664;139.738;2022-07-29T08:25:52;3.28;;;1.65;;
9413;SDS011;4746;35.664;139.738;2022-07-29T08:28:20;3.67;;;1.30;;
9413;SDS011;4746;35.664;139.738;2022-07-29T08:30:49;4.93;;;1.73;;
9413;SDS011;4746;35.664;139.738;2022-07-29T08:33:17;3.00;;;1.55;;
9413;SDS011;4746;35.664;139.738;2022-07-29T08:35:44;4.40;;;1.50;;
9413;SDS011;4746;35.664;139.738;2022-07-29T08:38:12;5.15;;;1.42;;
9413;SDS011;4746;35.664;139.738;2022-07-29T08:40:40;4.55;;;1.27;;
9413;SDS011;4746;35.664;139.738;2022-07-29T08:43:08;3.50;;;1.48;;
9413;SDS011;4746;35.664;139.738;2022-07-29T08:45:42;3.20;;;1.30;;
9413;SDS011;4746;35.664;139.738;2022-07-29T08:48:16;3.05;;;1.17;;
9413;SDS011;4746;35.664;139.738;2022-07-29T08:50:47;2.95;;;1.45;;
9413;SDS011;4746;35.664;139.738;2022-07-29T08:53:21;4.18;;;1.88;;
9413;SDS011;4746;35.664;139.738;2022-07-29T08:55:52;3.17;;;1.67;;
9413;SDS011;4746;35.664;139.738;2022-07-29T08:58:21;4.10;;;1.20;;
9413;SDS011;4746;35.664;139.738;2022-07-29T09:00:54;3.95;;;1.38;;
9413;SDS011;4746;35.664;139.738;2022-07-29T09:03:23;2.97;;;1.40;;
9413;SDS011;4746;35.664;139.738;2022-07-29T09:05:59;5.93;;;1.50;;
9413;SDS011;4746;35.664;139.738;2022-07-29T09:08:30;5.15;;;1.50;;
9413;SDS011;4746;35.664;139.738;2022-07-29T09:11:00;6.10;;;1.50;;
9413;SDS011;4746;35.664;139.738;2022-07-29T09:13:28;3.53;;;1.50;;
9413;SDS011;4746;35.664;139.738;2022-07-29T09:15:56;4.75;;;1.67;;
9413;SDS011;4746;35.664;139.738;2022-07-29T09:21:09;5.72;;;1.85;;
9413;SDS011;4746;35.664;139.738;2022-07-29T09:24:08;5.82;;;1.75;;
9413;SDS011;4746;35.664;139.738;2022-07-29T09:26:41;5.18;;;1.70;;
9413;SDS011;4746;35.664;139.738;2022-07-29T09:29:19;6.55;;;1.80;;
9413;SDS011;4746;35.664;139.738;2022-07-29T09:31:51;3.97;;;1.25;;
9413;SDS011;4746;35.664;139.738;2022-07-29T09:34:27;6.43;;;2.05;;
9413;SDS011;4746;35.664;139.738;2022-07-29T09:36:57;3.92;;;1.63;;
9413;SDS011;4746;35.664;139.738;2022-07-29T09:39:34;4.53;;;1.40;;
9413;SDS011;4746;35.664;139.738;2022-07-29T09:42:12;4.80;;;1.58;;
9413;SDS011;4746;35.664;139.738;2022-07-29T09:44:52;3.20;;;1.27;;
9413;SDS011;4746;35.664;139.738;2022-07-29T09:47:20;3.92;;;1.35;;
9413;SDS011;4746;35.664;139.738;2022-07-29T09:49:58;7.28;;;1.60;;
9413;SDS011;4746;35.664;139.738;2022-07-29T09:52:26;5.47;;;2.17;;
9413;SDS011;4746;35.664;139.738;2022-07-29T09:55:05;3.72;;;1.75;;
9413;SDS011;4746;35.664;139.738;2022-07-29T09:57:34;6.88;;;1.67;;
9413;SDS011;4746;35.664;139.738;2022-07-29T10:00:09;5.43;;;1.60;;
9413;SDS011;4746;35.664;139.738;2022-07-29T10:02:41;4.85;;;1.60;;
9413;SDS011;4746;35.664;139.738;2022-07-29T10:05:18;5.32;;;1.95;;
9413;SDS011;4746;35.664;139.738;2022-07-29T10:10:20;6.35;;;2.55;;
9413;SDS011;4746;35.664;139.738;2022-07-29T10:13:12;7.68;;;2.33;;
9413;SDS011;4746;35.664;139.738;2022-07-29T10:15:41;5.45;;;2.60;;
9413;SDS011;4746;35.664;139.738;2022-07-29T10:18:14;4.90;;;1.88;;
9413;SDS011;4746;35.664;139.738;2022-07-29T10:20:44;4.75;;;1.88;;
9413;SDS011;4746;35.664;139.738;2022-07-29T10:23:12;5.15;;;2.45;;
9413;SDS011;4746;35.664;139.738;2022-07-29T10:25:40;9.60;;;3.13;;
9413;SDS011;4746;35.664;139.738;2022-07-29T10:28:08;4.90;;;1.73;;
9413;SDS011;4746;35.664;139.738;2022-07-29T10:30:35;5.68;;;2.15;;
9413;SDS011;4746;35.664;139.738;2022-07-29T10:41:43;5.95;;;2.05;;
9413;SDS011;4746;35.664;139.738;2022-07-29T10:44:32;5.03;;;2.10;;
9413;SDS011;4746;35.664;139.738;2022-07-29T10:47:01;4.47;;;1.55;;
9413;SDS011;4746;35.664;139.738;2022-07-29T10:49:28;6.32;;;1.80;;
9413;SDS011;4746;35.664;139.738;2022-07-29T10:51:58;4.75;;;2.00;;
9413;SDS011;4746;35.664;139.738;2022-07-29T10:54:37;5.45;;;2.55;;
9413;SDS011;4746;35.664;139.738;2022-07-29T11:05:06;3.90;;;1.65;;
9413;SDS011;4746;35.664;139.738;2022-07-29T11:10:39;4.07;;;1.70;;
9413;SDS011;4746;35.664;139.738;2022-07-29T11:13:07;4.97;;;1.48;;
9413;SDS011;4746;35.664;139.738;2022-07-29T11:18:23;5.50;;;1.67;;
9413;SDS011;4746;35.664;139.738;2022-07-29T11:20:51;7.28;;;1.80;;
9413;SDS011;4746;35.664;139.738;2022-07-29T11:23:23;4.82;;;1.80;;
9413;SDS011;4746;35.664;139.738;2022-07-29T11:26:17;5.88;;;2.03;;
9413;SDS011;4746;35.664;139.738;2022-07-29T11:31:37;5.35;;;1.70;;
9413;SDS011;4746;35.664;139.738;2022-07-29T11:34:17;5.50;;;1.80;;
9413;SDS011;4746;35.664;139.738;2022-07-29T11:39:41;5.47;;;2.17;;
9413;SDS011;4746;35.664;139.738;2022-07-29T11:44:58;6.60;;;2.10;;
9413;SDS011;4746;35.664;139.738;2022-07-29T11:47:37;5.75;;;1.95;;
9413;SDS011;4746;35.664;139.738;2022-07-29T11:50:11;5.95;;;2.50;;
9413;SDS011;4746;35.664;139.738;2022-07-29T11:52:43;5.70;;;1.83;;
9413;SDS011;4746;35.664;139.738;2022-07-29T11:55:19;7.97;;;2.67;;
9413;SDS011;4746;35.664;139.738;2022-07-29T11:57:56;4.68;;;1.88;;
9413;SDS011;4746;35.664;139.738;2022-07-29T12:03:09;6.15;;;1.98;;
9413;SDS011;4746;35.664;139.738;2022-07-29T12:10:48;6.75;;;1.70;;
9413;SDS011;4746;35.664;139.738;2022-07-29T12:13:18;5.60;;;1.80;;
9413;SDS011;4746;35.664;139.738;2022-07-29T12:15:53;6.10;;;2.10;;
9413;SDS011;4746;35.664;139.738;2022-07-29T12:18:23;7.13;;;1.92;;
9413;SDS011;4746;35.664;139.738;2022-07-29T12:20:59;5.88;;;2.20;;
9413;SDS011;4746;35.664;139.738;2022-07-29T12:23:29;6.45;;;1.65;;
9413;SDS011;4746;35.664;139.738;2022-07-29T12:25:58;6.32;;;1.98;;
9413;SDS011;4746;35.664;139.738;2022-07-29T12:28:26;8.18;;;1.98;;
9413;SDS011;4746;35.664;139.738;2022-07-29T12:30:53;6.50;;;1.85;;
9413;SDS011;4746;35.664;139.738;2022-07-29T12:33:24;5.95;;;1.88;;
9413;SDS011;4746;35.664;139.738;2022-07-29T12:35:58;9.52;;;2.05;;
9413;SDS011;4746;35.664;139.738;2022-07-29T12:38:28;5.45;;;1.83;;
9413;SDS011;4746;35.664;139.738;2022-07-29T12:40:56;8.25;;;2.10;;
9413;SDS011;4746;35.664;139.738;2022-07-29T12:43:24;4.20;;;1.77;;
9413;SDS011;4746;35.664;139.738;2022-07-29T12:45:53;5.97;;;1.85;;
9413;SDS011;4746;35.664;139.738;2022-07-29T12:48:34;4.32;;;1.80;;
9413;SDS011;4746;35.664;139.738;2022-07-29T12:51:08;5.75;;;1.67;;
9413;SDS011;4746;35.664;139.738;2022-07-29T12:53:39;6.57;;;2.08;;
9413;SDS011;4746;35.664;139.738;2022-07-29T12:56:09;5.03;;;1.83;;
9413;SDS011;4746;35.664;139.738;2022-07-29T12:58:42;7.35;;;2.42;;
9413;SDS011;4746;35.664;139.738;2022-07-29T13:01:11;6.07;;;2.00;;
9413;SDS011;4746;35.664;139.738;2022-07-29T13:03:45;6.50;;;2.08;;
9413;SDS011;4746;35.664;139.738;2022-07-29T13:09:15;4.78;;;1.58;;
9413;SDS011;4746;35.664;139.738;2022-07-29T13:11:51;4.40;;;1.75;;
9413;SDS011;4746;35.664;139.738;2022-07-29T13:17:06;4.90;;;1.85;;
9413;SDS011;4746;35.664;139.738;2022-07-29T13:19:49;4.40;;;1.60;;
9413;SDS011;4746;35.664;139.738;2022-07-29T13:22:30;3.25;;;1.40;;
9413;SDS011;4746;35.664;139.738;2022-07-29T13:24:58;3.83;;;1.40;;
9413;SDS011;4746;35.664;139.738;2022-07-29T13:27:32;5.55;;;1.40;;
9413;SDS011;4746;35.664;139.738;2022-07-29T13:30:04;6.93;;;1.80;;
9413;SDS011;4746;35.664;139.738;2022-07-29T13:32:35;6.32;;;1.90;;
9413;SDS011;4746;35.664;139.738;2022-07-29T13:35:04;4.45;;;1.70;;
9413;SDS011;4746;35.664;139.738;2022-07-29T13:37:34;5.10;;;1.52;;
9413;SDS011;4746;35.664;139.738;2022-07-29T13:40:06;7.50;;;2.00;;
9413;SDS011;4746;35.664;139.738;2022-07-29T13:42:36;4.78;;;1.40;;
9413;SDS011;4746;35.664;139.738;2022-07-29T13:45:04;4.03;;;1.52;;
9413;SDS011;4746;35.664;139.738;2022-07-29T13:47:33;4.47;;;1.40;;
9413;SDS011;4746;35.664;139.738;2022-07-29T13:50:01;5.88;;;1.63;;
9413;SDS011;4746;35.664;139.738;2022-07-29T13:52:31;6.32;;;1.60;;
9413;SDS011;4746;35.664;139.738;2022-07-29T13:55:00;4.82;;;1.80;;
9413;SDS011;4746;35.664;139.738;2022-07-29T13:57:28;6.50;;;1.70;;
9413;SDS011;4746;35.664;139.738;2022-07-29T13:59:57;6.07;;;1.90;;
9413;SDS011;4746;35.664;139.738;2022-07-29T14:02:25;8.68;;;1.45;;
9413;SDS011;4746;35.664;139.738;2022-07-29T14:04:53;6.00;;;1.83;;
9413;SDS011;4746;35.664;139.738;2022-07-29T14:07:21;4.72;;;1.38;;
9413;SDS011;4746;35.664;139.738;2022-07-29T14:09:49;4.85;;;1.70;;
9413;SDS011;4746;35.664;139.738;2022-07-29T14:12:17;5.68;;;1.95;;
9413;SDS011;4746;35.664;139.738;2022-07-29T14:14:44;5.30;;;1.77;;
9413;SDS011;4746;35.664;139.738;2022-07-29T14:17:12;8.40;;;1.67;;
9413;SDS011;4746;35.664;139.738;2022-07-29T14:19:40;7.40;;;2.17;;
9413;SDS011;4746;35.664;139.738;2022-07-29T14:22:08;6.28;;;1.98;;
9413;SDS011;4746;35.664;139.738;2022-07-29T14:24:36;4.95;;;2.25;;
9413;SDS011;4746;35.664;139.738;2022-07-29T14:27:06;5.25;;;1.90;;
9413;SDS011;4746;35.664;139.738;2022-07-29T14:29:34;5.35;;;2.13;;
9413;SDS011;4746;35.664;139.738;2022-07-29T14:32:02;6.88;;;2.05;;
9413;SDS011;4746;35.664;139.738;2022-07-29T14:34:32;6.72;;;2.45;;
9413;SDS011;4746;35.664;139.738;2022-07-29T14:37:01;6.45;;;2.55;;
9413;SDS011;4746;35.664;139.738;2022-07-29T14:39:31;7.82;;;2.58;;
9413;SDS011;4746;35.664;139.738;2022-07-29T14:41:59;5.82;;;2.20;;
9413;SDS011;4746;35.664;139.738;2022-07-29T14:44:27;7.93;;;2.90;;
9413;SDS011;4746;35.664;139.738;2022-07-29T14:46:57;6.53;;;1.92;;
9413;SDS011;4746;35.664;139.738;2022-07-29T14:49:26;7.85;;;2.55;;
9413;SDS011;4746;35.664;139.738;2022-07-29T14:51:54;7.38;;;2.75;;
9413;SDS011;4746;35.664;139.738;2022-07-29T14:54:21;4.65;;;2.45;;
9413;SDS011;4746;35.664;139.738;2022-07-29T14:56:49;6.10;;;1.95;;
9413;SDS011;4746;35.664;139.738;2022-07-29T14:59:20;4.97;;;1.83;;
9413;SDS011;4746;35.664;139.738;2022-07-29T15:01:48;7.88;;;2.42;;
9413;SDS011;4746;35.664;139.738;2022-07-29T15:04:15;7.95;;;2.10;;
9413;SDS011;4746;35.664;139.738;2022-07-29T15:06:43;4.13;;;1.50;;
9413;SDS011;4746;35.664;139.738;2022-07-29T15:09:10;6.80;;;2.13;;
9413;SDS011;4746;35.664;139.738;2022-07-29T15:11:38;6.85;;;2.10;;
9413;SDS011;4746;35.664;139.738;2022-07-29T15:14:05;5.82;;;1.92;;
9413;SDS011;4746;35.664;139.738;2022-07-29T15:16:36;6.38;;;1.55;;
9413;SDS011;4746;35.664;139.738;2022-07-29T15:19:07;5.93;;;1.80;;
9413;SDS011;4746;35.664;139.738;2022-07-29T15:21:35;4.35;;;1.40;;
9413;SDS011;4746;35.664;139.738;2022-07-29T15:24:03;6.03;;;1.30;;
9413;SDS011;4746;35.664;139.738;2022-07-29T15:26:32;4.72;;;1.70;;
9413;SDS011;4746;35.664;139.738;2022-07-29T15:29:00;6.35;;;1.73;;
9413;SDS011;4746;35.664;139.738;2022-07-29T15:31:27;5.55;;;1.50;;
9413;SDS011;4746;35.664;139.738;2022-07-29T15:33:55;4.00;;;1.70;;
9413;SDS011;4746;35.664;139.738;2022-07-29T15:36:22;2.72;;;1.67;;
9413;SDS011;4746;35.664;139.738;2022-07-29T15:38:51;5.15;;;1.90;;
9413;SDS011;4746;35.664;139.738;2022-07-29T15:41:20;4.15;;;1.70;;
9413;SDS011;4746;35.664;139.738;2022-07-29T15:43:47;6.10;;;1.80;;
9413;SDS011;4746;35.664;139.738;2022-07-29T15:46:17;4.57;;;1.55;;
9413;SDS011;4746;35.664;139.738;2022-07-29T15:49:04;5.45;;;1.55;;
9413;SDS011;4746;35.664;139.738;2022-07-29T15:51:32;7.35;;;1.50;;
9413;SDS011;4746;35.664;139.738;2022-07-29T15:54:01;5.32;;;1.50;;
9413;SDS011;4746;35.664;139.738;2022-07-29T15:56:29;4.30;;;1.55;;
9413;SDS011;4746;35.664;139.738;2022-07-29T15:58:57;4.68;;;1.35;;
9413;SDS011;4746;35.664;139.738;2022-07-29T16:01:27;4.07;;;1.48;;
9413;SDS011;4746;35.664;139.738;2022-07-29T16:03:54;5.20;;;1.65;;
9413;SDS011;4746;35.664;139.738;2022-07-29T16:06:23;3.22;;;1.27;;
9413;SDS011;4746;35.664;139.738;2022-07-29T16:08:50;3.90;;;1.17;;
9413;SDS011;4746;35.664;139.738;2022-07-29T16:11:20;4.25;;;1.58;;